Time;durP1;ratioP1;P1;durP2;ratioP2;P2;SDS_P1;SDS_P2;PMS_P1;PMS_P2;Temp;Humidity;BMP_temperature;BMP_pressure;BME280_temperature;BME280_humidity;BME280_pressure;Samples;Min_cycle;Max_cycle;Signal;HPM_P1;HPM_P2
2023/12/14 00:00:25;;;;;;;28.50;20.90;;;11.90;78.10;;;;;;5007422;28;20459;-48
2023/12/14 00:02:51;;;;;;;31.23;21.30;;;11.90;78.10;;;;;;5009732;28;20108;-48
2023/12/14 00:05:20;;;;;;;29.33;20.13;;;11.90;78.10;;;;;;5009673;28;20122;-51
2023/12/14 00:07:47;;;;;;;28.55;19.90;;;11.90;78.20;;;;;;5008829;28;20092;-52
2023/12/14 00:10:14;;;;;;;25.45;18.35;;;11.90;78.10;;;;;;5007501;28;20041;-47
2023/12/14 00:12:43;;;;;;;27.83;18.27;;;11.90;78.10;;;;;;5010033;28;20127;-51
2023/12/14 00:15:10;;;;;;;25.00;16.25;;;11.90;78.20;;;;;;5009556;28;20119;-48
2023/12/14 00:17:36;;;;;;;21.20;15.18;;;11.80;78.00;;;;;;5007701;28;20038;-51
2023/12/14 00:20:06;;;;;;;20.63;14.90;;;11.80;77.90;;;;;;5005602;28;20061;-52
2023/12/14 00:22:32;;;;;;;19.13;13.98;;;11.80;77.80;;;;;;5009892;28;20108;-50
2023/12/14 00:25:00;;;;;;;19.38;14.25;;;11.80;77.80;;;;;;5004808;28;20113;-47
2023/12/14 00:27:26;;;;;;;19.67;13.18;;;11.80;77.90;;;;;;5008126;28;20551;-47
2023/12/14 00:29:53;;;;;;;18.20;13.43;;;11.80;77.80;;;;;;5008311;28;20041;-52
2023/12/14 00:32:20;;;;;;;18.02;12.32;;;11.80;77.80;;;;;;5008921;28;20057;-50
2023/12/14 00:34:46;;;;;;;18.42;12.23;;;11.70;77.60;;;;;;5007764;28;20066;-50
2023/12/14 00:37:13;;;;;;;20.88;11.88;;;11.80;77.60;;;;;;5007369;28;20045;-49
2023/12/14 00:39:40;;;;;;;16.58;11.90;;;11.70;77.40;;;;;;5009423;28;20116;-50
2023/12/14 00:42:09;;;;;;;15.25;11.15;;;11.70;77.40;;;;;;5008728;28;20046;-49
2023/12/14 00:44:35;;;;;;;17.45;11.13;;;11.70;77.40;;;;;;5006801;28;20376;-50
2023/12/14 00:47:02;;;;;;;16.50;11.75;;;11.70;77.30;;;;;;5009648;28;20545;-52
2023/12/14 00:49:29;;;;;;;16.27;10.27;;;11.60;77.30;;;;;;5009587;28;20565;-47
2023/12/14 00:51:58;;;;;;;15.52;11.57;;;11.60;77.30;;;;;;5022442;28;20057;-49
2023/12/14 00:54:25;;;;;;;14.68;10.48;;;11.60;77.40;;;;;;5000679;28;20065;-51
2023/12/14 00:56:51;;;;;;;16.05;11.25;;;11.60;77.40;;;;;;5009645;28;20049;-48
2023/12/14 00:59:18;;;;;;;16.75;11.43;;;11.60;77.50;;;;;;5008155;28;20499;-47
2023/12/14 01:01:45;;;;;;;16.95;11.27;;;11.60;77.60;;;;;;5007843;28;20046;-53
2023/12/14 01:04:11;;;;;;;16.05;11.13;;;11.60;77.70;;;;;;5009137;28;20069;-47
2023/12/14 01:06:38;;;;;;;15.50;10.95;;;11.60;77.80;;;;;;5012744;28;20149;-46
2023/12/14 01:09:06;;;;;;;17.42;11.77;;;11.60;77.70;;;;;;5011610;28;20038;-50
2023/12/14 01:11:32;;;;;;;17.13;12.15;;;11.60;77.60;;;;;;5010126;28;20066;-47
2023/12/14 01:13:59;;;;;;;18.70;12.18;;;11.60;77.50;;;;;;5013192;28;20096;-48
2023/12/14 01:16:27;;;;;;;17.95;11.63;;;11.60;77.40;;;;;;5012183;28;20478;-50
2023/12/14 01:18:54;;;;;;;16.05;10.88;;;11.50;77.40;;;;;;5013368;28;20045;-50
2023/12/14 01:21:23;;;;;;;18.20;12.30;;;11.50;77.40;;;;;;5007835;28;20092;-51
2023/12/14 01:23:49;;;;;;;16.67;11.30;;;11.50;77.30;;;;;;5008236;28;20499;-46
2023/12/14 01:26:21;;;;;;;18.42;12.60;;;11.50;77.30;;;;;;5011420;28;20048;-50
2023/12/14 01:28:48;;;;;;;17.92;12.35;;;11.50;77.40;;;;;;5011089;28;20070;-48
2023/12/14 01:31:14;;;;;;;19.27;12.95;;;11.50;77.30;;;;;;5012153;28;20049;-47
2023/12/14 01:33:41;;;;;;;19.13;12.73;;;11.40;77.30;;;;;;5010160;28;20117;-47
2023/12/14 01:36:08;;;;;;;16.92;11.88;;;11.40;77.20;;;;;;5006777;28;20045;-47
2023/12/14 01:38:35;;;;;;;18.65;12.38;;;11.40;77.10;;;;;;5012662;28;20074;-50
2023/12/14 01:41:01;;;;;;;17.67;12.57;;;11.30;77.00;;;;;;5012049;28;20045;-48
2023/12/14 01:43:30;;;;;;;19.33;12.60;;;11.30;77.10;;;;;;5011885;28;20049;-47
2023/12/14 01:45:59;;;;;;;18.95;13.02;;;11.30;77.20;;;;;;5008385;28;20041;-50
2023/12/14 01:48:25;;;;;;;15.60;11.57;;;11.20;77.30;;;;;;5005900;28;20030;-51
2023/12/14 01:50:52;;;;;;;21.20;14.13;;;11.20;77.50;;;;;;5007797;28;20622;-53
2023/12/14 01:53:19;;;;;;;19.58;13.80;;;11.20;77.50;;;;;;5009220;28;20567;-46
2023/12/14 01:55:46;;;;;;;19.92;14.07;;;11.20;77.50;;;;;;5008719;28;20041;-48
2023/12/14 01:58:13;;;;;;;21.77;14.35;;;11.20;77.60;;;;;;5011761;28;20058;-48
2023/12/14 02:01:00;;;;;;;24.27;15.40;;;11.10;77.40;;;;;;5011916;28;20125;-50
2023/12/14 02:03:27;;;;;;;23.08;14.85;;;11.10;77.40;;;;;;5010091;28;20042;-47
2023/12/14 02:05:54;;;;;;;25.08;15.23;;;11.10;77.30;;;;;;5008404;28;20403;-48
2023/12/14 02:08:20;;;;;;;23.60;15.02;;;11.10;77.30;;;;;;5011128;28;20037;-51
2023/12/14 02:10:48;;;;;;;23.45;15.23;;;11.10;77.50;;;;;;5011781;28;20132;-49
2023/12/14 02:13:17;;;;;;;22.45;15.43;;;11.00;77.40;;;;;;5010434;28;20034;-49
2023/12/14 02:15:44;;;;;;;24.83;15.55;;;11.00;77.50;;;;;;5008112;28;20113;-52
2023/12/14 02:18:10;;;;;;;25.23;17.15;;;10.90;77.50;;;;;;5011577;28;20130;-48
2023/12/14 02:20:37;;;;;;;23.08;16.67;;;10.90;77.50;;;;;;5011703;28;20137;-50
2023/12/14 02:23:04;;;;;;;25.13;16.15;;;10.90;77.50;;;;;;5010069;28;20469;-51
2023/12/14 02:25:30;;;;;;;29.38;16.85;;;10.90;77.60;;;;;;5019271;28;20173;-47
2023/12/14 02:27:57;;;;;;;27.00;17.13;;;10.80;77.80;;;;;;5011526;28;20034;-50
2023/12/14 02:30:24;;;;;;;23.42;15.60;;;10.80;77.70;;;;;;5011381;28;20042;-51
2023/12/14 02:32:51;;;;;;;26.65;16.40;;;10.80;77.70;;;;;;5009361;28;20057;-48
2023/12/14 02:35:18;;;;;;;24.10;15.88;;;10.70;77.80;;;;;;5009273;28;20049;-47
2023/12/14 02:37:45;;;;;;;25.90;14.68;;;10.70;77.80;;;;;;5009479;28;20050;-50
2023/12/14 02:40:12;;;;;;;24.30;15.75;;;10.70;77.80;;;;;;5011359;28;20463;-50
2023/12/14 02:42:39;;;;;;;20.77;14.43;;;10.70;77.80;;;;;;5010995;28;20119;-47
2023/12/14 02:45:08;;;;;;;23.17;15.13;;;10.60;77.90;;;;;;5005948;28;20062;-54
2023/12/14 02:47:34;;;;;;;27.05;15.68;;;10.60;78.20;;;;;;5006523;28;20125;-47
2023/12/14 02:50:02;;;;;;;25.38;15.23;;;10.60;78.00;;;;;;5026255;28;20459;-50
2023/12/14 02:52:31;;;;;;;22.38;16.02;;;10.60;78.10;;;;;;5010475;28;20126;-52
2023/12/14 02:54:58;;;;;;;21.90;15.55;;;10.60;78.30;;;;;;5006434;28;20048;-51
2023/12/14 02:57:25;;;;;;;24.77;15.80;;;10.60;78.30;;;;;;5011027;28;20475;-47
2023/12/14 02:59:53;;;;;;;22.15;15.30;;;10.50;78.20;;;;;;5011106;28;20046;-48
2023/12/14 03:02:20;;;;;;;22.73;15.50;;;10.50;78.10;;;;;;5006996;28;20053;-50
2023/12/14 03:04:46;;;;;;;25.48;16.25;;;10.50;78.10;;;;;;5010392;28;20119;-50
2023/12/14 03:07:13;;;;;;;25.40;16.25;;;10.50;78.20;;;;;;5010869;28;20069;-47
2023/12/14 03:09:44;;;;;;;22.58;15.07;;;10.50;78.10;;;;;;5007431;28;20065;-46
2023/12/14 03:12:11;;;;;;;21.02;14.63;;;10.50;78.10;;;;;;5008535;28;20042;-50
2023/12/14 03:14:38;;;;;;;20.70;15.05;;;10.50;78.00;;;;;;5010552;28;20037;-47
2023/12/14 03:17:12;;;;;;;23.27;16.20;;;10.40;78.10;;;;;;5010328;28;20061;-48
2023/12/14 03:19:41;;;;;;;26.23;14.95;;;10.40;78.20;;;;;;5005638;28;20045;-49
2023/12/14 03:22:09;;;;;;;25.13;15.30;;;10.40;78.10;;;;;;5009603;28;20042;-47
2023/12/14 03:24:36;;;;;;;23.33;15.70;;;10.40;78.10;;;;;;5003251;28;20534;-50
2023/12/14 03:27:04;;;;;;;25.33;16.27;;;10.40;78.10;;;;;;5009884;28;20042;-46
2023/12/14 03:29:31;;;;;;;27.50;17.60;;;10.40;78.00;;;;;;5009088;28;20056;-51
2023/12/14 03:31:57;;;;;;;31.60;17.60;;;10.40;78.00;;;;;;5008748;28;20798;-49
2023/12/14 03:34:24;;;;;;;24.48;16.05;;;10.30;78.10;;;;;;5009025;28;20041;-50
2023/12/14 03:36:54;;;;;;;24.75;16.20;;;10.30;78.00;;;;;;5007911;28;20161;-47
2023/12/14 03:39:20;;;;;;;25.73;16.92;;;10.30;78.00;;;;;;5010486;28;20069;-48
2023/12/14 03:41:49;;;;;;;27.65;15.63;;;10.30;77.80;;;;;;5009106;28;20068;-49
2023/12/14 03:44:17;;;;;;;25.95;15.73;;;10.30;77.80;;;;;;5006089;28;20045;-48
2023/12/14 03:46:44;;;;;;;25.13;16.80;;;10.30;77.70;;;;;;5061853;23;20063;-48
2023/12/14 03:49:13;;;;;;;26.50;15.77;;;10.30;77.80;;;;;;5085260;28;20051;-49
2023/12/14 03:51:40;;;;;;;24.35;15.90;;;10.20;77.60;;;;;;5085610;28;20046;-47
2023/12/14 03:54:07;;;;;;;25.15;16.08;;;10.20;77.50;;;;;;5073638;28;20040;-46
2023/12/14 03:56:33;;;;;;;23.85;15.20;;;10.20;77.50;;;;;;5068696;28;20123;-47
2023/12/14 03:59:01;;;;;;;25.95;16.17;;;10.20;77.60;;;;;;5069664;28;20060;-48
2023/12/14 04:01:27;;;;;;;22.83;14.68;;;10.20;77.60;;;;;;5069416;28;20047;-46
2023/12/14 04:03:54;;;;;;;22.55;14.82;;;10.10;77.70;;;;;;5059446;28;20137;-46
2023/12/14 04:06:21;;;;;;;23.10;15.45;;;10.20;77.70;;;;;;5067275;28;20106;-47
2023/12/14 04:08:47;;;;;;;22.63;15.00;;;10.10;77.70;;;;;;5069133;28;20048;-50
2023/12/14 04:11:17;;;;;;;24.10;15.27;;;10.10;77.80;;;;;;5068849;28;20124;-47
2023/12/14 04:13:46;;;;;;;23.08;14.25;;;10.20;77.90;;;;;;5063048;28;20558;-45
2023/12/14 04:16:12;;;;;;;23.05;13.82;;;10.20;77.80;;;;;;5067231;28;20068;-46
2023/12/14 04:18:40;;;;;;;24.30;14.82;;;10.20;77.80;;;;;;5069106;28;20574;-47
2023/12/14 04:21:07;;;;;;;22.38;13.77;;;10.20;77.80;;;;;;5067756;28;20045;-49
2023/12/14 04:23:33;;;;;;;28.13;15.18;;;10.10;77.60;;;;;;5063899;28;20037;-46
2023/12/14 04:26:00;;;;;;;24.90;15.40;;;10.10;77.60;;;;;;5051326;28;20040;-46
2023/12/14 04:28:27;;;;;;;22.65;13.73;;;10.10;77.70;;;;;;5057786;28;20490;-46
2023/12/14 04:30:53;;;;;;;19.15;12.77;;;10.10;77.70;;;;;;5056029;28;20037;-50
2023/12/14 04:33:23;;;;;;;20.50;13.40;;;10.10;77.70;;;;;;5058082;28;20048;-51
2023/12/14 04:35:49;;;;;;;19.00;12.23;;;10.10;77.70;;;;;;5059295;28;20085;-52
2023/12/14 04:38:16;;;;;;;22.95;14.15;;;10.10;77.60;;;;;;5067589;28;20535;-50
2023/12/14 04:40:45;;;;;;;20.60;13.52;;;10.10;77.50;;;;;;5064166;28;20068;-50
2023/12/14 04:43:12;;;;;;;23.23;14.82;;;10.10;77.50;;;;;;5066366;28;20098;-51
2023/12/14 04:45:39;;;;;;;28.50;14.23;;;10.10;77.60;;;;;;5068526;28;20043;-50
2023/12/14 04:48:05;;;;;;;25.95;15.65;;;10.10;77.60;;;;;;5069953;28;20090;-48
2023/12/14 04:50:35;;;;;;;22.55;15.00;;;10.10;77.70;;;;;;5065343;28;20492;-50
2023/12/14 04:53:02;;;;;;;21.10;13.82;;;10.10;77.60;;;;;;5062954;28;20049;-47
2023/12/14 04:55:29;;;;;;;23.88;15.02;;;10.10;77.50;;;;;;5067491;28;20068;-46
2023/12/14 04:57:55;;;;;;;25.15;15.00;;;10.10;77.50;;;;;;5072830;28;20056;-49
2023/12/14 05:00:22;;;;;;;26.55;15.88;;;10.10;77.40;;;;;;5072391;28;20052;-47
2023/12/14 05:02:49;;;;;;;22.77;15.23;;;10.10;77.30;;;;;;5068438;28;20047;-49
2023/12/14 05:05:16;;;;;;;23.77;15.65;;;10.10;77.30;;;;;;5065325;28;20672;-48
2023/12/14 05:07:45;;;;;;;23.52;16.20;;;10.10;77.20;;;;;;5063386;28;20035;-49
2023/12/14 05:10:12;;;;;;;23.02;15.23;;;10.00;77.20;;;;;;5069600;28;20046;-48
2023/12/14 05:12:38;;;;;;;24.38;15.07;;;10.00;77.10;;;;;;5065136;28;20044;-50
2023/12/14 05:15:06;;;;;;;21.92;14.20;;;10.00;77.10;;;;;;5059867;28;20522;-48
2023/12/14 05:17:34;;;;;;;23.00;15.38;;;10.00;77.30;;;;;;5068448;28;20127;-51
2023/12/14 05:20:01;;;;;;;24.15;14.77;;;10.00;77.50;;;;;;5066549;28;20414;-48
2023/12/14 05:22:27;;;;;;;21.50;16.08;;;10.00;77.60;;;;;;5062149;28;20051;-53
2023/12/14 05:24:56;;;;;;;24.70;16.65;;;10.00;77.70;;;;;;5064743;28;20044;-51
2023/12/14 05:27:24;;;;;;;24.98;15.98;;;10.00;77.90;;;;;;5068718;28;20072;-51
2023/12/14 05:29:53;;;;;;;24.02;15.60;;;10.00;77.80;;;;;;5071005;28;20599;-47
2023/12/14 05:32:20;;;;;;;30.17;16.02;;;10.00;77.80;;;;;;5067175;28;20075;-52
2023/12/14 05:34:47;;;;;;;22.38;14.93;;;10.00;77.70;;;;;;5066364;28;20119;-49
2023/12/14 05:37:14;;;;;;;23.95;16.17;;;10.00;77.60;;;;;;5067493;28;20045;-51
2023/12/14 05:39:42;;;;;;;22.50;14.77;;;10.00;77.50;;;;;;5066101;28;20045;-51
2023/12/14 05:42:09;;;;;;;24.52;16.05;;;10.00;77.40;;;;;;5066423;28;20048;-52
2023/12/14 05:44:35;;;;;;;24.52;15.55;;;10.00;77.40;;;;;;5062651;28;20083;-48
2023/12/14 05:47:02;;;;;;;28.08;16.17;;;10.00;77.40;;;;;;5066994;28;20525;-50
2023/12/14 05:49:29;;;;;;;29.02;17.55;;;10.00;77.40;;;;;;5066678;28;20090;-49
2023/12/14 05:51:58;;;;;;;29.42;17.63;;;10.00;77.50;;;;;;5065539;28;20490;-48
2023/12/14 05:54:27;;;;;;;25.08;16.70;;;9.90;77.40;;;;;;5065008;28;20603;-51
2023/12/14 05:56:54;;;;;;;24.50;15.68;;;9.90;77.30;;;;;;5064696;28;20040;-52
2023/12/14 05:59:21;;;;;;;24.17;16.08;;;9.90;77.30;;;;;;5059902;28;20128;-47
2023/12/14 06:01:47;;;;;;;24.95;16.83;;;9.90;77.30;;;;;;5066862;28;20040;-49
2023/12/14 06:04:14;;;;;;;23.30;15.82;;;9.90;77.40;;;;;;5058864;28;20421;-47
2023/12/14 06:06:41;;;;;;;26.25;16.30;;;9.90;77.60;;;;;;5057811;28;20036;-50
2023/12/14 06:09:10;;;;;;;25.10;17.48;;;9.80;77.60;;;;;;5057084;28;20029;-49
2023/12/14 06:11:37;;;;;;;24.65;17.30;;;10.10;77.70;;;;;;5060566;28;20047;-48
2023/12/14 06:14:03;;;;;;;26.80;17.48;;;9.80;77.40;;;;;;5056252;28;20045;-50
2023/12/14 06:16:31;;;;;;;25.60;17.65;;;9.80;77.30;;;;;;5061799;28;20569;-51
2023/12/14 06:18:58;;;;;;;26.40;17.70;;;9.90;77.40;;;;;;5067349;28;20086;-51
2023/12/14 06:21:28;;;;;;;26.48;17.77;;;9.90;77.40;;;;;;5061317;28;20125;-47
2023/12/14 06:23:58;;;;;;;18.63;12.83;;;9.80;77.30;;;;;;5055600;28;20131;-49
2023/12/14 06:26:28;;;;;;;25.75;17.17;;;9.80;77.20;;;;;;5060083;28;20068;-50
2023/12/14 06:28:56;;;;;;;23.80;16.70;;;9.90;77.20;;;;;;5067590;28;20034;-49
2023/12/14 06:31:24;;;;;;;22.42;15.38;;;9.80;77.00;;;;;;5069267;28;20045;-47
2023/12/14 06:33:51;;;;;;;23.42;16.00;;;9.90;76.90;;;;;;5063902;28;20060;-48
2023/12/14 06:36:29;;;;;;;22.95;14.98;;;9.80;76.70;;;;;;5058404;28;20053;-48
2023/12/14 06:38:57;;;;;;;21.52;15.98;;;9.80;76.70;;;;;;5066846;28;20445;-47
2023/12/14 06:41:26;;;;;;;22.52;15.63;;;9.80;76.60;;;;;;5065583;28;20098;-57
2023/12/14 06:43:55;;;;;;;24.23;15.85;;;9.80;76.50;;;;;;5066082;28;20075;-56
2023/12/14 06:46:25;;;;;;;22.98;15.95;;;9.80;76.40;;;;;;5067631;28;20041;-55
2023/12/14 06:48:52;;;;;;;23.25;15.48;;;9.80;76.50;;;;;;5065467;28;20200;-55
2023/12/14 06:51:26;;;;;;;25.15;16.70;;;9.80;76.50;;;;;;5067372;28;20132;-52
2023/12/14 06:53:54;;;;;;;23.50;16.38;;;9.80;76.40;;;;;;5064199;28;20040;-55
2023/12/14 06:56:22;;;;;;;22.65;15.90;;;9.70;76.20;;;;;;5064294;28;20044;-52
2023/12/14 06:58:49;;;;;;;21.13;14.95;;;9.70;76.20;;;;;;5069396;28;20053;-52
2023/12/14 07:01:17;;;;;;;21.38;15.48;;;9.70;76.30;;;;;;5070151;28;20123;-51
2023/12/14 07:03:45;;;;;;;20.50;14.85;;;9.70;76.30;;;;;;5066510;28;20052;-55
2023/12/14 07:06:16;;;;;;;22.00;15.55;;;9.70;76.30;;;;;;5070004;28;20527;-56
2023/12/14 07:08:44;;;;;;;23.30;16.23;;;9.70;76.40;;;;;;5071156;28;20082;-52
2023/12/14 07:11:11;;;;;;;21.58;16.08;;;9.60;76.30;;;;;;5068506;28;20375;-56
2023/12/14 07:13:39;;;;;;;27.00;17.65;;;9.60;76.30;;;;;;5068257;28;20032;-51
2023/12/14 07:16:09;;;;;;;25.23;17.40;;;9.60;76.30;;;;;;5070667;28;20094;-53
2023/12/14 07:18:40;;;;;;;24.38;16.52;;;9.60;76.20;;;;;;5071150;28;20567;-51
2023/12/14 07:21:08;;;;;;;22.52;16.10;;;9.60;76.20;;;;;;5068024;28;20055;-51
2023/12/14 07:23:37;;;;;;;23.15;16.52;;;9.60;76.20;;;;;;5059082;28;20045;-56
2023/12/14 07:26:04;;;;;;;25.45;16.40;;;9.50;76.20;;;;;;5063656;28;20036;-53
2023/12/14 07:28:34;;;;;;;22.60;15.45;;;9.60;76.30;;;;;;5070594;28;20064;-56
2023/12/14 07:31:01;;;;;;;24.05;16.35;;;9.60;76.50;;;;;;5070280;28;20526;-56
2023/12/14 07:33:28;;;;;;;22.45;15.55;;;9.60;76.40;;;;;;5060671;28;20465;-55
2023/12/14 07:35:58;;;;;;;22.63;15.43;;;9.60;76.40;;;;;;5070333;28;20052;-51
2023/12/14 07:38:24;;;;;;;19.23;13.98;;;9.60;76.30;;;;;;5070730;28;20144;-52
2023/12/14 07:40:52;;;;;;;22.95;14.73;;;9.60;76.10;;;;;;5066299;28;20180;-55
2023/12/14 07:43:22;;;;;;;18.13;14.05;;;9.60;76.10;;;;;;5065226;28;20425;-53
2023/12/14 07:45:50;;;;;;;21.08;15.23;;;9.60;76.10;;;;;;5070589;28;20051;-52
2023/12/14 07:48:17;;;;;;;20.85;15.07;;;9.60;75.90;;;;;;5070672;28;20082;-57
2023/12/14 07:50:43;;;;;;;23.20;16.20;;;9.60;75.80;;;;;;5063895;28;20072;-52
2023/12/14 07:53:14;;;;;;;21.75;14.95;;;9.60;75.80;;;;;;5060743;28;20120;-56
2023/12/14 07:55:41;;;;;;;22.90;16.10;;;9.60;75.80;;;;;;5062113;28;20045;-56
2023/12/14 07:58:08;;;;;;;21.50;15.95;;;9.60;75.80;;;;;;5064845;28;20454;-56
2023/12/14 08:00:35;;;;;;;21.92;15.52;;;9.60;75.80;;;;;;5062088;28;20033;-54
2023/12/14 08:03:03;;;;;;;20.52;15.05;;;9.60;75.90;;;;;;5061210;28;20051;-54
2023/12/14 08:05:30;;;;;;;20.50;15.70;;;9.70;76.00;;;;;;5061835;28;20040;-55
2023/12/14 08:07:57;;;;;;;21.80;15.43;;;9.80;75.90;;;;;;5062819;28;20499;-56
2023/12/14 08:10:26;;;;;;;24.00;16.48;;;9.60;75.80;;;;;;5070275;28;20040;-53
2023/12/14 08:12:55;;;;;;;20.77;15.20;;;9.60;75.80;;;;;;5069805;28;20079;-55
2023/12/14 08:15:22;;;;;;;21.05;15.30;;;9.60;75.80;;;;;;5069086;28;20086;-54
2023/12/14 08:17:48;;;;;;;22.60;16.13;;;9.60;75.80;;;;;;5061638;28;20076;-55
2023/12/14 08:20:15;;;;;;;25.05;16.90;;;9.60;76.40;;;;;;5070505;28;20098;-54
2023/12/14 08:22:49;;;;;;;24.00;15.82;;;9.60;75.80;;;;;;5070227;28;20079;-55
2023/12/14 08:25:18;;;;;;;23.83;16.55;;;9.60;75.80;;;;;;5061543;28;20470;-53
2023/12/14 08:27:45;;;;;;;20.80;14.68;;;9.60;75.70;;;;;;5066856;28;20119;-56
2023/12/14 08:30:13;;;;;;;22.52;15.02;;;9.60;75.60;;;;;;5070127;28;20052;-55
2023/12/14 08:32:43;;;;;;;21.27;15.27;;;9.60;75.60;;;;;;5063819;28;20102;-56
2023/12/14 08:35:12;;;;;;;21.80;15.23;;;9.60;75.70;;;;;;5067999;28;20033;-57
2023/12/14 08:37:43;;;;;;;19.55;14.30;;;9.60;75.60;;;;;;5069894;28;20079;-53
2023/12/14 08:40:10;;;;;;;19.25;14.45;;;9.60;75.80;;;;;;5063211;28;20033;-55
2023/12/14 08:42:38;;;;;;;22.38;15.02;;;9.50;75.60;;;;;;5058646;28;20045;-52
2023/12/14 08:45:11;;;;;;;20.65;14.65;;;9.50;75.50;;;;;;5067554;28;20533;-55
2023/12/14 08:47:41;;;;;;;18.35;14.85;;;9.60;75.70;;;;;;5069952;28;20043;-53
2023/12/14 08:50:12;;;;;;;18.65;14.07;;;9.60;75.60;;;;;;5058546;28;20115;-52
2023/12/14 08:52:40;;;;;;;21.02;13.48;;;9.60;75.70;;;;;;5066472;28;20040;-53
2023/12/14 08:55:08;;;;;;;20.23;14.50;;;9.60;75.70;;;;;;5060333;28;20028;-53
2023/12/14 08:57:35;;;;;;;19.70;13.70;;;9.60;75.60;;;;;;5061171;28;20419;-56
2023/12/14 09:00:09;;;;;;;17.00;13.65;;;9.60;75.60;;;;;;5058419;28;20087;-55
2023/12/14 09:02:36;;;;;;;16.77;13.60;;;9.50;75.50;;;;;;5062406;28;20044;-53
2023/12/14 09:05:07;;;;;;;17.98;13.95;;;9.60;75.60;;;;;;5063447;28;20458;-55
2023/12/14 09:07:34;;;;;;;20.30;13.85;;;9.60;75.70;;;;;;5063313;28;20410;-54
2023/12/14 09:10:03;;;;;;;18.45;13.57;;;9.60;75.60;;;;;;5068749;28;20037;-55
2023/12/14 09:12:34;;;;;;;20.13;14.10;;;9.60;75.50;;;;;;5069858;28;20036;-57
2023/12/14 09:15:04;;;;;;;17.75;12.75;;;9.60;75.60;;;;;;5067718;28;20052;-57
2023/12/14 09:17:34;;;;;;;18.45;14.30;;;9.60;75.60;;;;;;5065997;28;20575;-54
2023/12/14 09:20:07;;;;;;;17.48;13.30;;;9.60;75.60;;;;;;5069955;28;20129;-55
2023/12/14 09:22:33;;;;;;;18.52;13.30;;;9.60;75.60;;;;;;5070850;28;20049;-56
2023/12/14 09:25:00;;;;;;;18.17;13.65;;;9.70;75.50;;;;;;5063785;28;20045;-57
2023/12/14 09:27:30;;;;;;;18.80;14.07;;;9.60;75.30;;;;;;5071466;28;20449;-57
2023/12/14 09:29:57;;;;;;;19.27;13.93;;;9.70;75.40;;;;;;5073351;28;20041;-56
2023/12/14 09:32:23;;;;;;;21.70;14.32;;;9.60;75.50;;;;;;5071168;28;20090;-57
2023/12/14 09:34:56;;;;;;;18.60;13.25;;;9.60;75.60;;;;;;5062494;28;20118;-56
2023/12/14 09:37:22;;;;;;;19.15;13.90;;;9.70;75.80;;;;;;5073052;28;20040;-53
2023/12/14 09:39:49;;;;;;;19.45;13.23;;;9.70;75.70;;;;;;5072854;28;20036;-53
2023/12/14 09:42:22;;;;;;;17.13;13.75;;;9.70;75.70;;;;;;5071322;28;20110;-56
2023/12/14 09:44:50;;;;;;;17.45;13.60;;;9.80;75.60;;;;;;5061115;28;20075;-57
2023/12/14 09:47:17;;;;;;;19.92;13.88;;;9.80;75.50;;;;;;5072655;28;20128;-57
2023/12/14 09:49:45;;;;;;;19.60;13.55;;;9.80;75.40;;;;;;5073104;28;20036;-54
2023/12/14 09:52:12;;;;;;;17.08;13.05;;;9.70;75.90;;;;;;5068726;28;20045;-57
2023/12/14 09:54:39;;;;;;;16.67;12.73;;;9.80;75.30;;;;;;5062144;28;20072;-55
2023/12/14 09:57:06;;;;;;;20.65;14.77;;;9.80;75.30;;;;;;5063111;28;20051;-56
2023/12/14 09:59:35;;;;;;;18.77;13.75;;;9.80;75.30;;;;;;5089254;22;20045;-56
2023/12/14 10:02:12;;;;;;;15.98;13.13;;;9.70;75.00;;;;;;5072601;28;20411;-56
2023/12/14 10:04:41;;;;;;;18.92;14.00;;;9.70;75.10;;;;;;5063512;28;20052;-56
2023/12/14 10:07:08;;;;;;;18.80;13.63;;;9.70;75.20;;;;;;5071437;28;20183;-55
2023/12/14 10:09:40;;;;;;;19.10;13.57;;;9.70;75.30;;;;;;5071642;28;20115;-54
2023/12/14 10:12:10;;;;;;;17.33;13.13;;;9.70;75.60;;;;;;5069874;28;20110;-56
2023/12/14 10:14:39;;;;;;;18.48;12.55;;;9.70;75.50;;;;;;5065982;28;20064;-54
2023/12/14 10:17:19;;;;;;;16.55;12.35;;;9.80;75.30;;;;;;5069420;28;20075;-57
2023/12/14 10:19:47;;;;;;;14.50;10.98;;;9.80;75.10;;;;;;5072454;28;20040;-55
2023/12/14 10:22:18;;;;;;;17.65;11.65;;;9.80;75.10;;;;;;5067843;28;20040;-53
2023/12/14 10:24:47;;;;;;;16.05;11.15;;;9.80;75.60;;;;;;5061755;28;20446;-55
2023/12/14 10:27:16;;;;;;;15.10;12.20;;;9.80;75.00;;;;;;5065957;28;20036;-57
2023/12/14 10:29:46;;;;;;;14.75;11.63;;;9.80;75.10;;;;;;5071998;28;20036;-54
2023/12/14 10:32:14;;;;;;;17.95;13.98;;;9.80;75.20;;;;;;5067568;28;20523;-54
2023/12/14 10:34:41;;;;;;;18.33;13.95;;;9.80;75.30;;;;;;5064410;28;20390;-56
2023/12/14 10:37:13;;;;;;;16.95;12.35;;;9.90;75.40;;;;;;5071216;28;20056;-57
2023/12/14 10:39:46;;;;;;;17.38;13.75;;;9.90;75.50;;;;;;5072180;28;20414;-55
2023/12/14 10:42:16;;;;;;;20.92;13.85;;;9.90;75.40;;;;;;5063203;28;20076;-58
2023/12/14 10:44:50;;;;;;;15.88;12.65;;;9.90;75.30;;;;;;5070762;28;20402;-55
2023/12/14 10:47:48;;;;;;;16.48;12.55;;;9.90;75.30;;;;;;5071705;28;20064;-57
2023/12/14 10:50:15;;;;;;;17.73;13.05;;;9.90;75.20;;;;;;5061732;28;20037;-58
2023/12/14 10:52:45;;;;;;;17.70;12.75;;;9.90;75.20;;;;;;5063820;28;20094;-56
2023/12/14 10:55:36;;;;;;;18.13;12.95;;;10.00;75.30;;;;;;5059065;28;20057;-58
2023/12/14 10:58:04;;;;;;;18.27;12.65;;;10.00;75.00;;;;;;5062532;28;20053;-57
2023/12/14 11:00:36;;;;;;;18.00;12.55;;;9.90;75.00;;;;;;5067519;28;20070;-57
2023/12/14 11:03:06;;;;;;;;;;;9.90;74.90;;;;;;5061878;28;20041;-58
2023/12/14 11:05:33;;;;;;;18.60;11.75;;;10.00;74.90;;;;;;5064131;28;19920;-57
2023/12/14 11:08:12;;;;;;;15.02;11.38;;;10.00;74.80;;;;;;5064324;28;20445;-59
2023/12/14 11:10:46;;;;;;;15.70;11.45;;;10.00;74.70;;;;;;5068248;28;20033;-56
2023/12/14 11:13:14;;;;;;;15.63;11.48;;;9.90;74.50;;;;;;5070871;28;20471;-56
2023/12/14 11:15:49;;;;;;;;;;;9.90;74.60;;;;;;5071777;28;20041;-58
2023/12/14 11:18:16;;;;;;;14.98;10.45;;;9.90;74.60;;;;;;5057022;28;19967;-58
2023/12/14 11:20:46;;;;;;;15.60;10.45;;;9.90;74.50;;;;;;5065947;28;20051;-57
2023/12/14 11:23:25;;;;;;;13.18;11.05;;;9.90;74.60;;;;;;5069072;28;20040;-59
2023/12/14 11:25:57;;;;;;;15.75;11.02;;;9.90;74.80;;;;;;5057465;28;20033;-58
2023/12/14 11:28:34;;;;;;;14.25;10.13;;;9.90;74.60;;;;;;5063049;28;20045;-58
2023/12/14 11:31:06;;;;;;;14.23;10.50;;;9.90;74.70;;;;;;5069735;28;20167;-59
2023/12/14 11:33:36;;;;;;;14.35;10.43;;;9.90;74.70;;;;;;5062048;28;20037;-58
2023/12/14 11:36:11;;;;;;;14.23;10.25;;;9.90;74.80;;;;;;5068982;28;20037;-57
2023/12/14 11:38:44;;;;;;;13.60;9.75;;;9.90;74.70;;;;;;5071001;28;20047;-57
2023/12/14 11:41:13;;;;;;;14.43;10.63;;;9.90;74.60;;;;;;5065435;28;20044;-58
2023/12/14 11:43:43;;;;;;;17.48;11.38;;;9.80;74.70;;;;;;5058709;28;20052;-57
2023/12/14 11:46:11;;;;;;;14.80;10.43;;;9.80;74.80;;;;;;5070614;28;20556;-58
2023/12/14 11:48:37;;;;;;;14.52;10.23;;;9.80;74.90;;;;;;5070667;28;20041;-57
2023/12/14 11:51:09;;;;;;;13.80;10.48;;;9.80;75.00;;;;;;5062599;28;20094;-58
2023/12/14 11:53:38;;;;;;;15.23;10.30;;;9.80;75.00;;;;;;5065728;28;20043;-58
2023/12/14 11:56:06;;;;;;;12.20;9.27;;;9.90;74.90;;;;;;5053492;28;20464;-56
2023/12/14 11:58:35;;;;;;;14.15;10.05;;;9.90;74.70;;;;;;5063742;28;20419;-58
2023/12/14 12:01:12;;;;;;;14.32;10.10;;;9.80;74.60;;;;;;5069465;28;20640;-57
2023/12/14 12:03:39;;;;;;;14.95;10.75;;;9.90;74.60;;;;;;5070397;28;20045;-56
2023/12/14 12:06:08;;;;;;;13.25;10.15;;;9.80;74.80;;;;;;5068973;28;20044;-57
2023/12/14 12:08:42;;;;;;;15.18;10.52;;;9.90;74.80;;;;;;5066867;28;20042;-59
2023/12/14 12:11:09;;;;;;;14.65;10.52;;;9.90;74.60;;;;;;5070592;28;20453;-56
2023/12/14 12:13:36;;;;;;;15.60;11.60;;;9.90;74.60;;;;;;5070299;28;20402;-58
2023/12/14 12:16:08;;;;;;;13.23;10.32;;;9.90;74.60;;;;;;5066735;28;20446;-59
2023/12/14 12:18:35;;;;;;;14.93;10.23;;;9.90;74.60;;;;;;5070270;28;20048;-58
2023/12/14 12:21:08;;;;;;;16.25;10.43;;;9.90;74.60;;;;;;5070390;28;20066;-59
2023/12/14 12:23:37;;;;;;;14.77;10.93;;;9.90;74.80;;;;;;5067158;28;20510;-57
2023/12/14 12:26:04;;;;;;;13.38;10.27;;;9.90;74.90;;;;;;5067215;28;20068;-59
2023/12/14 12:28:31;;;;;;;13.93;10.77;;;10.00;74.80;;;;;;5070203;28;20449;-56
2023/12/14 12:31:00;;;;;;;15.48;11.00;;;10.00;74.60;;;;;;5068954;28;20072;-58
2023/12/14 12:33:29;;;;;;;17.05;11.38;;;10.00;74.70;;;;;;5067250;28;20037;-56
2023/12/14 12:35:56;;;;;;;13.55;10.23;;;10.00;74.40;;;;;;5067232;28;20115;-59
2023/12/14 12:38:23;;;;;;;14.45;10.45;;;10.00;74.30;;;;;;5069970;28;20127;-59